Red Lodge, MT

5:43 PM MDT on September 16, 2014 (GMT -0600)
Yellowstone Regional | Change Station
CLOSE
Current Station
Airport
Location: Cody,
Elevation: 5095 ft
Nearby Weather Stations

Elev 5095 ft 44.52 °N, 109.02 °W | Updated 8 minutes ago

Mostly Cloudy
Mostly Cloudy
73 °F
Feels Like 73 °F
N
4
Wind Variable Wind from NW

Today
High -- | Low -- °F
--% Chance of Precip.
Yesterday
High -- | Low -- °F
Precip. -- in
6:57 AM 7:26 PM
Last Quarter, 41% visible
Pressure 30.05 in
Visibility 10.0 miles
Clouds Clear
Dew Point 45 °F
Humidity 36%
Rainfall 0.00 in
Snow Depth 0 in , 1 in , 0 in
UV 1 out of 12
Pollen 6.30 out of 12
Air Quality Not available.
Flu Activity Not available.
METAR KCOD 162335Z AUTO 32003KT 10SM CLR 23/07 A3005 RMK AO1

More Conditions Fewer Conditions

Pressure 30.05 in
Visibility 10.0 miles
Clouds Clear
Dew Point 45 °F
Humidity 36%
Rainfall 0.00 in
Snow Depth 0 in , 1 in , 0 in
UV 1 out of 12
Pollen 6.30 out of 12
Air Quality Not available.
Flu Activity Not available.
METAR KCOD 162335Z AUTO 32003KT 10SM CLR 23/07 A3005 RMK AO1

More Conditions Fewer Conditions

10-Day Weather Forecast

Almanac

Astronomy

Sep. 16, 2014 Rise Set
Actual Time 6:57 AM MDT 7:26 PM MDT
Civil Twilight 6:27 AM MDT 7:55 PM MDT
Nautical Twilight 5:52 AM MDT 8:30 PM MDT
Astronomical Twilight 5:16 AM MDT 9:06 PM MDT
Moon No Moon Rise 3:04 PM MDT
Length of Visible Light 13h 28m
Length of Day
12h 29m
Tomorrow will be 3m 7s shorter.
Last Quarter, 41% of the Moon is Illuminated
Today
Last Quarter
Sep 24
New
Oct 1
First Quarter
Oct 8
Full
Oct 15
Last Quarter

Today's Extremes

State Highs State Lows

Community

WunderPhotos

Upload Photos

1,753,917 photos uploaded!

Nearby

Snow Depth

Station Depth Elevation
Short Creek 0 in 7000 ft
Shower Falls 1 in 8100 ft
Lone Mountain 0 in 8880 ft
Northeast Entrance 0 in 7350 ft
Kraft Creek 0 in 4750 ft

Earthquake Activity

City Distance Mag. Time & Date
No recent earthquake activity has been reported nearby.
Minimum magnitude displayed is 2.5.

Coastal Water Temperatures

Place Temperature
No Stations Reporting

Nearby Weather Stations